Time;durP1;ratioP1;P1;durP2;ratioP2;P2;SDS_P1;SDS_P2;PMS_P1;PMS_P2;Temp;Humidity;BMP_temperature;BMP_pressure;BME280_temperature;BME280_humidity;BME280_pressure;Samples;Min_cycle;Max_cycle;Signal;HPM_P1;HPM_P2
2022/05/16 00:02:09;;;;;;;6.37;2.65;;;;;;;15.82;57.67;100536.50;4471099;32;20111;-66
2022/05/16 00:04:41;;;;;;;4.80;2.50;;;;;;;15.73;57.48;100529.72;4471141;32;20834;-65
2022/05/16 00:07:08;;;;;;;5.05;2.33;;;;;;;15.67;58.16;100533.41;4471049;32;20130;-65
2022/05/16 00:09:36;;;;;;;3.97;2.08;;;;;;;15.60;57.39;100539.78;4471073;32;20464;-65
2022/05/16 00:12:04;;;;;;;7.15;3.10;;;;;;;15.64;57.13;100528.16;4471132;32;20151;-65
2022/05/16 00:14:31;;;;;;;4.82;2.40;;;;;;;15.59;59.62;100530.09;4470901;32;20536;-65
2022/05/16 00:16:58;;;;;;;9.05;2.78;;;;;;;15.44;60.26;100539.41;4470967;32;20172;-66
2022/05/16 00:19:26;;;;;;;6.43;2.20;;;;;;;15.30;60.19;100537.12;4471177;32;20171;-65
2022/05/16 00:21:53;;;;;;;5.40;2.12;;;;;;;15.30;60.10;100534.50;4471043;32;20180;-65
2022/05/16 00:24:24;;;;;;;3.40;2.50;;;;;;;15.25;59.70;100535.53;4470852;32;20097;-65
2022/05/16 00:26:53;;;;;;;2.47;1.98;;;;;;;15.26;58.82;100529.28;4470851;32;20175;-65
2022/05/16 00:29:20;;;;;;;8.10;1.98;;;;;;;15.36;58.22;100528.13;4470886;32;20432;-66
2022/05/16 00:31:47;;;;;;;7.82;2.35;;;;;;;15.44;56.78;100533.19;4470966;32;20151;-65
2022/05/16 00:34:16;;;;;;;4.20;2.12;;;;;;;15.42;57.46;100533.25;4470916;32;20468;-65
2022/05/16 00:36:47;;;;;;;6.00;1.90;;;;;;;15.49;56.36;100532.16;4470983;32;20088;-65
2022/05/16 00:39:18;;;;;;;6.78;2.33;;;;;;;15.49;56.39;100531.28;4470859;32;20080;-65
2022/05/16 00:41:47;;;;;;;4.93;2.10;;;;;;;15.46;56.57;100534.91;4470858;32;20072;-65
2022/05/16 00:44:16;;;;;;;5.97;2.15;;;;;;;15.46;56.61;100537.56;4470852;32;20631;-66
2022/05/16 00:46:44;;;;;;;6.07;2.17;;;;;;;15.41;56.62;100528.00;4470737;32;20096;-65
2022/05/16 00:49:24;;;;;;;8.13;2.05;;;;;;;15.42;56.40;100527.06;4470881;32;20478;-66
2022/05/16 00:52:04;;;;;;;4.87;2.20;;;;;;;15.43;56.39;100528.81;4470909;32;20092;-65
2022/05/16 00:54:44;;;;;;;7.62;2.55;;;;;;;15.43;56.59;100536.78;4470890;32;20156;-65
2022/05/16 00:57:16;;;;;;;5.00;1.75;;;;;;;15.42;56.25;100538.56;4470696;32;20104;-66
2022/05/16 00:59:50;;;;;;;6.57;2.47;;;;;;;15.46;56.02;100539.34;4470770;32;20159;-65
2022/05/16 01:05:07;;;;;;;3.17;2.03;;;;;;;15.52;55.61;100537.38;4470038;32;20119;-65
2022/05/16 01:07:39;;;;;;;10.07;2.40;;;;;;;15.42;56.51;100538.56;4470663;32;20135;-65
2022/05/16 01:10:09;;;;;;;6.10;2.42;;;;;;;15.33;58.39;100545.91;4470792;32;20102;-66
2022/05/16 01:12:39;;;;;;;3.30;2.00;;;;;;;15.30;57.82;100558.38;4470519;32;20130;-65
2022/05/16 01:15:45;;;;;;;4.43;2.20;;;;;;;15.26;57.97;100553.19;4470586;32;20232;-65
2022/05/16 01:18:18;;;;;;;5.50;2.08;;;;;;;15.30;56.92;100555.72;4470441;32;20569;-65
2022/05/16 01:20:49;;;;;;;4.97;2.80;;;;;;;15.34;56.43;100567.13;4470601;32;20100;-66
2022/05/16 01:23:20;;;;;;;4.37;2.33;;;;;;;15.40;56.39;100566.06;4470629;32;20187;-66
2022/05/16 01:25:49;;;;;;;5.47;2.72;;;;;;;15.43;56.42;100558.00;4470312;32;20180;-66
2022/05/16 01:28:19;;;;;;;3.40;2.30;;;;;;;15.46;56.69;100564.09;4470499;32;20188;-66
2022/05/16 01:30:47;;;;;;;8.35;2.42;;;;;;;15.55;56.16;100560.31;4470438;32;20170;-66
2022/05/16 01:33:20;;;;;;;18.98;2.60;;;;;;;15.57;57.75;100565.56;4470428;32;20407;-66
2022/05/16 01:35:48;;;;;;;6.20;2.85;;;;;;;15.45;58.53;100565.03;4470405;32;20160;-65
2022/05/16 01:38:21;;;;;;;3.55;2.72;;;;;;;15.36;57.51;100559.09;4470417;32;20092;-66
2022/05/16 01:40:53;;;;;;;6.80;3.50;;;;;;;15.28;59.37;100560.19;4470441;32;20442;-66
2022/05/16 01:43:25;;;;;;;13.27;2.62;;;;;;;15.23;58.25;100571.84;4470602;32;20161;-66
2022/05/16 01:45:52;;;;;;;5.32;2.05;;;;;;;15.13;59.35;100571.25;4470463;32;20081;-66
2022/05/16 01:48:20;;;;;;;4.07;2.60;;;;;;;15.10;59.09;100576.66;4470336;32;20515;-66
2022/05/16 01:50:49;;;;;;;3.45;2.50;;;;;;;15.02;60.73;100576.00;4470272;32;20084;-66
2022/05/16 01:53:18;;;;;;;8.13;4.28;;;;;;;14.92;60.69;100571.84;4470386;32;20173;-66
2022/05/16 01:55:45;;;;;;;4.60;2.28;;;;;;;14.89;61.20;100564.81;4470426;32;20097;-65
2022/05/16 01:58:12;;;;;;;4.72;2.53;;;;;;;14.89;60.79;100567.47;4470430;32;20483;-66
2022/05/16 02:00:40;;;;;;;6.00;2.20;;;;;;;14.91;60.16;100565.66;4470262;32;20155;-65
2022/05/16 02:03:07;;;;;;;5.82;2.40;;;;;;;14.99;59.82;100568.09;4470347;32;20096;-65
2022/05/16 02:05:35;;;;;;;8.25;3.10;;;;;;;15.08;58.46;100575.81;4470246;32;20565;-66
2022/05/16 02:08:02;;;;;;;5.50;2.65;;;;;;;15.14;59.50;100578.28;4470223;32;20116;-66
2022/05/16 02:10:30;;;;;;;4.70;2.78;;;;;;;15.15;59.13;100571.19;4470476;32;20114;-65
2022/05/16 02:12:57;;;;;;;5.20;2.25;;;;;;;15.15;59.21;100580.03;4470054;32;20096;-65
2022/05/16 02:15:28;;;;;;;8.02;2.80;;;;;;;15.11;58.89;100577.50;4469626;32;20100;-66
2022/05/16 02:17:56;;;;;;;6.50;2.28;;;;;;;15.06;59.17;100578.50;4470214;32;20092;-65
2022/05/16 02:20:24;;;;;;;5.75;2.45;;;;;;;15.04;59.09;100584.75;4470153;32;20137;-65
2022/05/16 02:25:41;;;;;;;13.48;2.65;;;;;;;14.98;58.95;100583.16;4470071;32;20150;-66
2022/05/16 02:28:11;;;;;;;5.18;2.28;;;;;;;14.96;58.97;100587.62;4470241;32;20126;-66
2022/05/16 02:30:38;;;;;;;5.37;2.67;;;;;;;14.91;59.33;100586.88;4470144;32;20114;-66
2022/05/16 02:33:06;;;;;;;4.00;2.35;;;;;;;14.86;58.43;100593.22;4470065;32;20474;-66
2022/05/16 02:35:33;;;;;;;4.40;2.37;;;;;;;14.79;59.48;100596.03;4469997;32;20089;-66
2022/05/16 02:38:03;;;;;;;7.20;2.58;;;;;;;14.66;59.48;100591.94;4470064;32;20130;-66
2022/05/16 02:40:32;;;;;;;8.77;2.87;;;;;;;14.61;58.80;100585.03;4470039;32;20107;-66
2022/05/16 02:43:00;;;;;;;5.47;2.53;;;;;;;14.55;59.32;100584.25;4470251;32;20423;-66
2022/05/16 02:45:29;;;;;;;10.93;2.75;;;;;;;14.52;59.54;100588.75;4470202;32;20089;-66
2022/05/16 02:47:56;;;;;;;4.18;2.33;;;;;;;14.54;59.24;100586.94;4470017;32;20096;-66
2022/05/16 02:50:24;;;;;;;6.12;2.97;;;;;;;14.48;59.06;100585.28;4470040;32;20111;-66
2022/05/16 02:52:53;;;;;;;10.68;2.75;;;;;;;14.44;59.32;100583.63;4469829;32;20184;-66
2022/05/16 02:55:21;;;;;;;3.75;2.53;;;;;;;14.42;60.26;100582.81;4469836;32;20127;-65
2022/05/16 02:57:48;;;;;;;10.50;2.67;;;;;;;14.45;59.17;100580.06;4469834;32;20391;-66
2022/05/16 03:00:18;;;;;;;5.97;2.50;;;;;;;14.46;59.52;100592.41;4469892;32;20076;-66
2022/05/16 03:02:45;;;;;;;4.87;2.25;;;;;;;14.34;62.10;100584.75;4469771;32;20126;-66
2022/05/16 03:05:12;;;;;;;7.45;2.58;;;;;;;14.29;62.71;100587.50;4469744;32;20693;-66
2022/05/16 03:07:40;;;;;;;8.07;2.53;;;;;;;14.23;61.04;100581.47;4469927;32;20538;-65
2022/05/16 03:10:08;;;;;;;3.90;2.50;;;;;;;14.21;60.53;100583.31;4469838;32;20433;-65
2022/05/16 03:12:35;;;;;;;8.27;3.05;;;;;;;14.18;60.82;100588.69;4469853;32;20212;-66
2022/05/16 03:15:03;;;;;;;3.97;2.53;;;;;;;14.18;62.93;100586.03;4469705;32;20171;-65
2022/05/16 03:17:30;;;;;;;5.50;2.80;;;;;;;14.20;61.59;100587.72;4469672;32;20137;-66
2022/05/16 03:19:59;;;;;;;5.97;2.10;;;;;;;14.35;60.05;100589.16;4469600;32;20080;-66
2022/05/16 03:22:30;;;;;;;6.90;3.10;;;;;;;14.44;60.24;100591.56;4469656;32;20099;-65
2022/05/16 03:24:58;;;;;;;6.70;2.72;;;;;;;14.55;59.56;100594.00;4469626;32;20100;-66
2022/05/16 03:27:25;;;;;;;8.95;2.20;;;;;;;14.66;59.56;100583.97;4468323;32;20531;-66
2022/05/16 03:29:53;;;;;;;5.65;2.37;;;;;;;14.75;58.86;100580.22;4469471;32;20130;-66
2022/05/16 03:32:20;;;;;;;7.22;3.05;;;;;;;14.78;61.83;100583.69;4469470;32;20114;-66
2022/05/16 03:34:53;;;;;;;4.55;2.75;;;;;;;14.84;61.52;100580.00;4469405;32;20452;-66
2022/05/16 03:37:22;;;;;;;5.70;2.33;;;;;;;14.94;62.01;100572.66;4469502;32;20080;-66
2022/05/16 03:42:35;;;;;;;6.30;2.58;;;;;;;15.08;61.90;100570.50;4469370;32;20520;-66
2022/05/16 03:45:04;;;;;;;6.50;2.58;;;;;;;15.17;60.12;100572.03;4469495;32;20096;-66
2022/05/16 03:47:31;;;;;;;9.77;3.25;;;;;;;15.26;59.40;100577.97;4469342;32;20084;-65
2022/05/16 03:49:59;;;;;;;14.15;2.97;;;;;;;15.36;60.07;100585.66;4469122;32;20104;-65
2022/05/16 03:52:26;;;;;;;3.33;2.50;;;;;;;15.48;59.32;100587.97;4469262;32;20141;-65
2022/05/16 03:54:53;;;;;;;10.18;2.58;;;;;;;15.56;59.33;100580.66;4460881;32;20108;-65
2022/05/16 03:57:22;;;;;;;11.20;3.47;;;;;;;15.69;60.39;100575.87;4461989;32;20490;-66
2022/05/16 03:59:49;;;;;;;7.75;3.55;;;;;;;15.80;58.59;100580.88;4456237;32;20115;-66
2022/05/16 04:02:16;;;;;;;6.12;3.05;;;;;;;15.90;58.08;100583.22;4453367;32;20093;-66
2022/05/16 04:04:44;;;;;;;8.00;2.58;;;;;;;16.02;57.06;100581.94;4454098;32;20192;-66
2022/05/16 04:07:11;;;;;;;10.05;3.33;;;;;;;16.11;56.55;100589.63;4454235;32;20146;-65
2022/05/16 04:09:38;;;;;;;10.23;3.83;;;;;;;16.24;56.88;100592.78;4453249;32;20085;-66
2022/05/16 04:12:06;;;;;;;13.48;4.70;;;;;;;16.38;56.59;100592.31;4453303;32;20119;-66
2022/05/16 04:14:34;;;;;;;8.15;3.95;;;;;;;16.53;55.05;100597.13;4454820;32;20513;-66
2022/05/16 04:17:01;;;;;;;10.38;4.53;;;;;;;16.75;53.93;100599.09;4459144;32;20100;-66
2022/05/16 04:19:29;;;;;;;12.13;4.15;;;;;;;16.87;53.95;100607.56;4467945;32;20096;-66
2022/05/16 04:21:56;;;;;;;6.53;3.08;;;;;;;16.91;53.05;100603.88;4450671;32;77481;-66
2022/05/16 04:24:23;;;;;;;7.22;2.62;;;;;;;17.02;52.72;100606.16;4452692;32;20135;-66
2022/05/16 04:26:50;;;;;;;8.32;2.58;;;;;;;17.10;52.42;100603.22;4453105;32;20096;-66
2022/05/16 04:29:17;;;;;;;11.90;2.70;;;;;;;17.12;51.88;100610.22;4453023;32;20673;-66
2022/05/16 04:31:44;;;;;;;9.90;2.53;;;;;;;17.11;51.98;100610.31;4454251;32;20119;-66
2022/05/16 04:34:12;;;;;;;10.20;2.60;;;;;;;17.05;52.43;100606.06;4468751;32;20115;-66
2022/05/16 04:36:39;;;;;;;7.72;2.58;;;;;;;17.01;52.58;100609.75;4468355;32;20130;-66
2022/05/16 04:39:06;;;;;;;10.70;2.60;;;;;;;16.95;52.85;100613.47;4469274;32;20080;-66
2022/05/16 04:44:19;;;;;;;9.00;2.28;;;;;;;16.98;52.26;100617.84;4470696;32;20084;-66
2022/05/16 04:46:47;;;;;;;13.93;2.53;;;;;;;16.90;52.79;100610.13;4470753;32;20134;-66
2022/05/16 04:49:14;;;;;;;8.07;2.78;;;;;;;16.87;52.47;100609.34;4470679;32;20443;-66
2022/05/16 04:51:42;;;;;;;6.45;2.47;;;;;;;16.88;52.69;100619.06;4470580;32;20169;-66
2022/05/16 04:54:09;;;;;;;4.62;2.58;;;;;;;16.91;52.54;100611.84;4470708;32;20172;-66
2022/05/16 04:56:36;;;;;;;5.85;2.20;;;;;;;17.01;52.48;100622.19;4470825;32;20096;-66
2022/05/16 04:59:03;;;;;;;13.88;2.65;;;;;;;17.05;52.20;100619.34;4464340;32;20441;-65
2022/05/16 05:01:31;;;;;;;12.43;3.92;;;;;;;17.12;51.35;100618.22;4455665;32;20112;-66
2022/05/16 05:03:58;;;;;;;13.43;2.65;;;;;;;17.16;51.43;100621.66;4455730;32;20427;-66
2022/05/16 05:06:25;;;;;;;12.48;2.65;;;;;;;17.14;51.28;100615.53;4455984;32;20100;-66
2022/05/16 05:08:52;;;;;;;6.95;2.28;;;;;;;17.20;51.53;100624.13;4460637;32;20096;-67
2022/05/16 05:16:51;;;;;;;10.57;2.53;;;;;;;17.54;50.07;100625.59;4467427;32;20100;-67
2022/05/16 05:19:19;;;;;;;5.75;2.17;;;;;;;17.69;49.52;100626.81;4455343;32;20579;-66
2022/05/16 05:21:46;;;;;;;9.68;2.50;;;;;;;17.80;48.97;100629.09;4453873;32;20093;-66
2022/05/16 05:24:13;;;;;;;10.50;2.22;;;;;;;17.90;49.39;100623.37;4456066;32;20127;-66
2022/05/16 05:26:42;;;;;;;7.62;2.50;;;;;;;18.03;49.25;100629.09;4455690;32;20123;-66
2022/05/16 05:29:13;;;;;;;12.10;2.40;;;;;;;18.15;49.58;100636.63;4455336;32;20085;-66
2022/05/16 05:31:41;;;;;;;8.90;2.83;;;;;;;18.30;48.61;100631.59;4455226;32;20552;-65
2022/05/16 05:34:11;;;;;;;15.40;2.10;;;;;;;18.45;48.49;100632.81;4454903;32;20089;-66
2022/05/16 05:36:42;;;;;;;9.57;2.10;;;;;;;18.58;47.40;100632.22;4455121;32;20946;-65
2022/05/16 05:39:13;;;;;;;10.00;2.05;;;;;;;18.64;45.52;100631.13;4455424;32;20073;-65
2022/05/16 05:41:40;;;;;;;9.13;2.10;;;;;;;18.71;45.18;100639.75;4459304;32;20089;-66
2022/05/16 05:44:07;;;;;;;6.50;2.15;;;;;;;18.79;45.13;100630.50;4462586;32;20422;-65
2022/05/16 05:46:36;;;;;;;9.32;2.22;;;;;;;18.82;45.02;100634.84;4461371;32;20465;-65
2022/05/16 05:49:04;;;;;;;10.60;2.47;;;;;;;18.96;44.79;100634.28;4461818;32;20161;-65
2022/05/16 05:51:32;;;;;;;4.40;1.73;;;;;;;19.13;44.08;100642.44;4466825;32;20161;-65
2022/05/16 05:53:59;;;;;;;10.25;2.20;;;;;;;19.41;43.84;100639.41;4469868;32;20476;-65
2022/05/16 05:56:28;;;;;;;13.13;2.25;;;;;;;19.56;43.01;100641.41;4470196;32;20099;-65
2022/05/16 05:58:56;;;;;;;11.70;2.25;;;;;;;19.77;42.71;100639.59;4470210;32;20145;-65
2022/05/16 06:01:23;;;;;;;5.50;2.60;;;;;;;19.97;42.43;100645.84;4469754;32;20096;-65
2022/05/16 06:03:51;;;;;;;24.58;3.12;;;;;;;20.10;42.04;100641.63;4470254;32;20108;-65
2022/05/16 06:06:19;;;;;;;6.00;2.22;;;;;;;20.29;42.01;100647.84;4464426;32;20131;-65
2022/05/16 06:08:46;;;;;;;3.53;1.90;;;;;;;20.55;40.67;100650.22;4461200;32;20097;-65
2022/05/16 06:11:13;;;;;;;17.80;2.67;;;;;;;20.66;41.36;100647.91;4462640;32;20857;-65
2022/05/16 06:13:40;;;;;;;7.87;1.80;;;;;;;20.75;41.97;100648.31;4461340;32;20519;-65
2022/05/16 06:16:08;;;;;;;15.88;2.55;;;;;;;20.85;40.72;100648.72;4450679;32;20173;-65
2022/05/16 06:18:36;;;;;;;10.75;3.00;;;;;;;20.94;40.53;100650.06;4469949;32;20085;-66
2022/05/16 06:21:04;;;;;;;9.77;2.15;;;;;;;21.22;40.44;100649.50;4469857;32;20122;-66
2022/05/16 06:23:31;;;;;;;8.25;2.15;;;;;;;21.58;39.77;100653.91;4469932;32;20131;-65
2022/05/16 06:25:59;;;;;;;5.32;2.20;;;;;;;21.78;38.67;100650.19;4463890;32;20100;-65
2022/05/16 06:28:29;;;;;;;12.43;2.28;;;;;;;21.79;37.91;100647.41;4459654;32;20088;-65
2022/05/16 06:30:56;;;;;;;15.93;2.47;;;;;;;21.69;38.92;100648.84;4454596;32;20100;-65
2022/05/16 06:33:28;;;;;;;7.18;2.10;;;;;;;21.66;39.06;100649.00;4454223;32;20460;-66
2022/05/16 06:35:57;;;;;;;7.93;1.90;;;;;;;21.49;39.47;100649.94;4454147;32;20519;-65
2022/05/16 06:38:31;;;;;;;8.43;2.20;;;;;;;21.42;39.84;100649.38;4453959;32;20092;-66
2022/05/16 06:40:59;;;;;;;5.22;2.08;;;;;;;21.36;40.50;100640.78;4454496;32;20085;-65
2022/05/16 06:43:29;;;;;;;9.88;2.42;;;;;;;21.39;39.80;100641.50;4453880;32;20171;-65
2022/05/16 06:45:56;;;;;;;3.67;1.90;;;;;;;21.47;38.92;100641.09;4454226;32;20091;-66
2022/05/16 06:48:24;;;;;;;11.32;2.20;;;;;;;21.61;38.57;100640.34;4465022;32;20084;-65
2022/05/16 06:50:52;;;;;;;17.27;2.47;;;;;;;21.64;40.02;100637.50;4457323;32;20120;-65
2022/05/16 06:53:29;;;;;;;7.18;2.12;;;;;;;21.86;38.79;100637.19;4454083;32;20131;-65
2022/05/16 06:55:57;;;;;;;13.88;2.40;;;;;;;;;;4454232;32;20204;-65
2022/05/16 06:58:26;;;;;;;8.23;1.92;;;;;;;21.79;38.36;100635.81;4454776;32;20172;-66
2022/05/16 07:00:53;;;;;;;5.97;1.55;;;;;;;21.84;38.04;100642.66;4454136;32;20612;-64
2022/05/16 07:03:20;;;;;;;6.90;2.00;;;;;;;;;;4453996;32;20162;-66
2022/05/16 07:05:49;;;;;;;6.95;2.58;;;;;;;21.83;37.56;100640.91;4453975;32;20159;-66
2022/05/16 07:08:19;;;;;;;11.90;2.20;;;;;;;21.89;38.40;100642.41;4455708;32;20088;-66
2022/05/16 07:10:48;;;;;;;3.35;1.95;;;;;;;22.00;38.96;100644.50;4470367;32;20084;-66
2022/05/16 07:13:23;;;;;;;6.57;1.73;;;;;;;22.17;37.48;100648.00;4469548;32;20152;-66
2022/05/16 07:15:50;;;;;;;6.47;1.60;;;;;;;22.43;36.41;100651.03;4458513;32;20143;-66
2022/05/16 07:18:18;;;;;;;7.12;1.83;;;;;;;22.46;35.74;100648.19;4466722;32;20095;-65
2022/05/16 07:20:45;;;;;;;6.57;2.25;;;;;;;22.59;35.89;100649.22;4469296;32;20411;-66
2022/05/16 07:23:13;;;;;;;4.80;2.42;;;;;;;22.66;35.76;100652.41;4470112;32;20176;-65
2022/05/16 07:28:27;;;;;;;11.27;2.00;;;;;;;22.85;35.11;100650.37;4470252;32;20103;-65
2022/05/16 07:30:54;;;;;;;7.53;1.60;;;;;;;22.89;34.84;100651.06;4470616;32;20108;-65
2022/05/16 07:33:21;;;;;;;5.72;1.80;;;;;;;22.88;35.41;100655.56;4470220;32;20093;-65
2022/05/16 07:35:50;;;;;;;3.00;1.20;;;;;;;22.93;35.36;100654.47;4469739;32;20203;-66
2022/05/16 07:38:27;;;;;;;11.12;2.75;;;;;;;23.00;35.48;100654.00;4469405;32;20110;-65
2022/05/16 07:40:55;;;;;;;12.88;2.17;;;;;;;23.17;34.70;100649.44;4465873;32;20114;-65
2022/05/16 07:43:24;;;;;;;7.18;2.53;;;;;;;23.28;35.76;100653.22;4452729;32;20143;-66
2022/05/16 07:45:52;;;;;;;16.10;2.17;;;;;;;23.35;34.66;100659.09;4453887;32;20519;-65
2022/05/16 07:48:20;;;;;;;8.90;1.50;;;;;;;23.45;34.97;100656.72;4463824;32;20108;-65
2022/05/16 07:50:48;;;;;;;16.90;2.47;;;;;;;23.49;34.44;100653.72;4469466;32;20508;-66
2022/05/16 07:53:16;;;;;;;16.08;2.70;;;;;;;23.64;34.20;100660.00;4468759;32;20119;-66
2022/05/16 07:55:50;;;;;;;37.35;2.55;;;;;;;23.95;34.41;100661.66;4468958;32;20131;-66
2022/05/16 07:58:20;;;;;;;52.13;3.33;;;;;;;24.06;34.55;100663.66;4468852;32;20142;-66
2022/05/16 08:00:54;;;;;;;15.47;1.77;;;;;;;24.23;34.39;100657.22;4470064;32;20072;-67
2022/05/16 08:03:24;;;;;;;29.20;3.42;;;;;;;24.50;34.02;100668.91;4469738;32;20100;-66
2022/05/16 08:05:51;;;;;;;29.60;2.67;;;;;;;24.67;35.89;100666.97;4469474;32;20122;-65
2022/05/16 08:11:05;;;;;;;6.70;2.13;;;;;;;24.65;32.53;100653.56;4452013;32;20451;-66
2022/05/16 08:13:32;;;;;;;6.62;1.95;;;;;;;24.84;32.93;100663.13;4451812;32;20228;-66
2022/05/16 08:15:59;;;;;;;11.50;2.45;;;;;;;25.07;32.80;100664.28;4455027;32;20111;-66
2022/05/16 08:18:27;;;;;;;7.65;2.20;;;;;;;25.18;34.80;100670.69;4455747;32;20096;-67
2022/05/16 08:20:55;;;;;;;6.28;1.95;;;;;;;25.36;32.08;100662.31;4455460;32;20097;-66
2022/05/16 08:23:26;;;;;;;30.65;2.83;;;;;;;25.58;31.47;100661.66;4455404;32;20116;-66
2022/05/16 08:25:55;;;;;;;5.82;2.03;;;;;;;25.63;30.83;100663.06;4455924;32;20171;-66
2022/05/16 08:28:22;;;;;;;6.30;2.40;;;;;;;25.47;30.72;100657.03;4456067;32;20088;-66
2022/05/16 08:30:51;;;;;;;5.22;1.90;;;;;;;25.47;31.29;100657.03;4455926;32;20196;-67
2022/05/16 08:33:19;;;;;;;11.43;2.67;;;;;;;25.45;31.41;100653.59;4456014;32;20806;-66
2022/05/16 08:39:52;;;;;;;14.30;2.87;;;;;;;25.83;32.56;100647.31;4455772;32;20108;-67
2022/05/16 08:41:26;;;;;;;8.57;2.62;;;;;;;25.91;31.32;100659.31;4455941;32;20150;-67
2022/05/16 08:44:20;;;;;;;5.32;1.83;;;;;;;26.25;31.06;100661.41;4455853;32;20123;-67
2022/05/16 08:47:25;;;;;;;12.18;2.30;;;;;;;26.45;29.89;100661.66;4455746;32;20105;-67
2022/05/16 08:49:55;;;;;;;5.80;2.42;;;;;;;26.68;29.44;100662.72;4403140;32;20126;-67
2022/05/16 08:52:31;;;;;;;15.40;2.40;;;;;;;26.85;30.06;100657.84;4455505;32;20110;-67
2022/05/16 08:55:05;;;;;;;;;;;;;;;27.09;29.29;100652.41;4456036;32;20180;-67
2022/05/16 08:57:40;;;;;;;34.58;3.17;;;;;;;27.02;30.39;100654.72;4455687;32;19992;-67
2022/05/16 09:00:32;;;;;;;27.25;3.05;;;;;;;27.24;28.94;100653.97;4455862;32;20144;-67
2022/05/16 09:03:05;;;;;;;18.92;2.40;;;;;;;27.51;28.50;100655.50;4455702;32;20100;-67
2022/05/16 09:05:36;;;;;;;15.15;2.95;;;;;;;27.53;27.72;100654.41;4455725;32;20088;-67
2022/05/16 09:08:10;;;;;;;24.25;3.08;;;;;;;27.57;28.99;100657.75;4455474;32;20096;-67
2022/05/16 09:11:03;;;;;;;15.40;2.45;;;;;;;28.11;28.53;100663.31;4471239;32;20076;-67
2022/05/16 09:13:30;;;;;;;7.55;2.17;;;;;;;28.61;27.30;100652.06;4456318;32;20130;-66
2022/05/16 09:16:12;;;;;;;13.65;2.75;;;;;;;28.65;28.21;100656.22;4466354;32;20185;-67
2022/05/16 09:19:03;;;;;;;52.62;3.10;;;;;;;28.66;26.70;100648.94;4466839;32;20786;-67
2022/05/16 09:21:51;;;;;;;40.33;2.67;;;;;;;28.36;27.12;100645.06;4466472;32;20135;-67
2022/05/16 09:24:27;;;;;;;32.97;2.40;;;;;;;28.04;27.89;100645.84;4458538;32;20153;-67
2022/05/16 09:26:58;;;;;;;10.57;2.65;;;;;;;28.08;28.16;100633.78;4464657;32;20437;-67
2022/05/16 09:29:37;;;;;;;8.05;2.53;;;;;;;27.70;27.86;100633.25;4471084;32;20119;-67
2022/05/16 09:32:23;;;;;;;7.78;2.40;;;;;;;28.06;28.44;100637.63;4469101;32;20468;-66
2022/05/16 09:34:50;;;;;;;9.60;2.12;;;;;;;28.23;27.94;100633.50;4461386;32;20084;-67
2022/05/16 09:37:18;;;;;;;7.35;2.08;;;;;;;27.88;27.84;100631.81;4463639;32;20091;-67
2022/05/16 09:39:45;;;;;;;9.75;2.30;;;;;;;28.26;28.04;100625.97;4467263;32;20139;-67
2022/05/16 09:42:20;;;;;;;12.50;2.40;;;;;;;28.32;28.21;100630.06;4471000;32;20735;-67
2022/05/16 09:44:57;;;;;;;7.32;2.20;;;;;;;28.35;28.20;100629.81;4455807;32;20175;-66
2022/05/16 09:47:36;;;;;;;9.65;2.70;;;;;;;28.64;27.69;100619.25;4455847;32;20565;-67
2022/05/16 09:50:06;;;;;;;7.05;2.70;;;;;;;28.56;27.19;100613.63;4463720;32;20155;-67
2022/05/16 09:52:36;;;;;;;9.70;2.78;;;;;;;28.95;28.17;100620.25;4455488;32;20093;-67
2022/05/16 09:55:10;;;;;;;6.87;2.35;;;;;;;29.13;28.55;100615.12;4455356;32;20127;-67
2022/05/16 09:57:50;;;;;;;19.60;3.22;;;;;;;29.37;28.03;100611.28;4459381;32;20116;-67
2022/05/16 10:00:31;;;;;;;4.40;1.92;;;;;;;29.39;26.72;100610.13;4462383;32;20159;-66
2022/05/16 10:03:19;;;;;;;8.20;2.70;;;;;;;29.63;25.94;100612.59;4471006;32;20166;-67
2022/05/16 10:05:50;;;;;;;5.50;2.50;;;;;;;29.80;25.75;100612.97;4469982;32;20187;-67
2022/05/16 10:08:29;;;;;;;4.07;2.05;;;;;;;29.85;25.88;100607.97;4469173;32;20808;-67
2022/05/16 10:11:00;;;;;;;4.00;2.25;;;;;;;29.89;26.52;100603.97;4455225;32;20088;-67
2022/05/16 10:13:28;;;;;;;5.10;2.25;;;;;;;29.98;25.58;100598.56;4455747;32;20065;-67
2022/05/16 10:15:57;;;;;;;5.28;2.00;;;;;;;30.25;25.45;100597.13;4455823;32;20088;-67
2022/05/16 10:18:27;;;;;;;7.30;2.35;;;;;;;30.77;24.81;100596.91;4454305;32;20173;-67
2022/05/16 10:21:02;;;;;;;8.75;2.33;;;;;;;31.44;25.13;100590.50;4454771;32;20184;-67
2022/05/16 10:23:34;;;;;;;11.98;2.95;;;;;;;31.65;23.51;100591.16;4466581;32;21028;-67
2022/05/16 10:26:09;;;;;;;14.10;2.40;;;;;;;32.07;24.33;100592.56;4467895;32;20122;-67
2022/05/16 10:28:41;;;;;;;11.67;2.73;;;;;;;32.92;22.57;100590.38;4461318;32;20122;-67
2022/05/16 10:34:12;;;;;;;15.68;2.40;;;;;;;33.21;21.43;100585.50;4455237;32;20068;-67
2022/05/16 10:36:43;;;;;;;8.88;2.50;;;;;;;33.33;22.94;100582.53;4454990;32;20117;-66
2022/05/16 10:39:15;;;;;;;7.03;2.60;;;;;;;33.43;22.36;100584.12;4455242;32;20115;-67
2022/05/16 10:41:48;;;;;;;7.50;2.20;;;;;;;32.07;22.09;100587.13;4454524;32;20164;-66
2022/05/16 10:44:16;;;;;;;9.02;2.40;;;;;;;31.44;23.73;100582.34;4454045;32;20089;-67
2022/05/16 10:46:54;;;;;;;8.40;2.62;;;;;;;32.23;22.73;100586.44;4453932;32;20096;-67
2022/05/16 10:49:21;;;;;;;9.70;2.30;;;;;;;32.50;23.32;100582.84;4453786;32;20497;-66
2022/05/16 10:52:04;;;;;;;6.15;2.12;;;;;;;32.02;23.36;100579.41;4454232;32;20093;-66
2022/05/16 10:54:31;;;;;;;11.05;2.28;;;;;;;32.73;22.33;100570.44;4454580;32;20131;-67
2022/05/16 10:57:24;;;;;;;11.30;2.55;;;;;;;33.17;22.32;100569.59;4455032;32;20148;-66
2022/05/16 11:00:00;;;;;;;8.57;2.30;;;;;;;32.60;21.70;100572.69;4454882;32;20119;-66
2022/05/16 11:02:34;;;;;;;5.35;2.17;;;;;;;32.01;22.54;100568.63;4458799;32;20134;-66
2022/05/16 11:05:16;;;;;;;6.53;2.05;;;;;;;31.56;22.78;100569.41;4457779;32;20455;-66
2022/05/16 11:07:55;;;;;;;7.12;2.33;;;;;;;32.37;23.00;100564.97;4462462;32;20139;-67
2022/05/16 11:10:34;;;;;;;14.30;2.60;;;;;;;32.92;22.86;100560.34;4452513;32;20514;-67
2022/05/16 11:13:34;;;;;;;4.15;1.90;;;;;;;33.23;21.43;100560.78;4466323;32;20108;-67
2022/05/16 11:16:24;;;;;;;4.70;2.00;;;;;;;33.64;20.83;100564.62;4469609;32;20097;-67
2022/05/16 11:18:56;;;;;;;8.77;2.37;;;;;;;33.67;21.56;100550.62;4470011;32;20088;-67
2022/05/16 11:21:32;;;;;;;5.80;2.17;;;;;;;33.67;20.28;100556.09;4470267;32;20088;-66
2022/05/16 11:24:09;;;;;;;6.72;2.03;;;;;;;33.73;21.41;100549.13;4470111;32;20100;-66
2022/05/16 11:26:55;;;;;;;8.68;2.42;;;;;;;33.39;20.71;100557.28;4470072;32;20122;-67
2022/05/16 11:29:41;;;;;;;8.48;2.70;;;;;;;33.28;20.88;100553.81;4470432;32;20103;-67
2022/05/16 11:32:30;;;;;;;2.60;2.08;;;;;;;33.26;21.70;100552.28;4469934;32;20165;-67
2022/05/16 11:35:09;;;;;;;12.55;2.92;;;;;;;33.96;20.41;100555.72;4469658;32;20470;-67
2022/05/16 11:37:55;;;;;;;7.28;2.37;;;;;;;35.47;19.93;100550.84;4470166;32;20127;-67
2022/05/16 11:40:31;;;;;;;;;;;;;;;36.37;18.55;100548.56;4470334;32;20096;-66
2022/05/16 11:43:07;;;;;;;8.18;2.30;;;;;;;37.61;17.52;100540.09;4470296;32;20003;-66
2022/05/16 11:45:37;;;;;;;9.27;2.22;;;;;;;38.34;18.14;100535.47;4470404;32;20101;-67
2022/05/16 11:48:32;;;;;;;14.82;3.00;;;;;;;38.06;17.41;100530.75;4455038;32;20157;-67
2022/05/16 11:51:31;;;;;;;6.40;2.35;;;;;;;36.54;17.57;100530.12;4469806;32;20133;-67
2022/05/16 11:54:01;;;;;;;8.45;2.58;;;;;;;38.46;17.11;100526.53;4460367;32;20174;-66
2022/05/16 12:02:35;;;;;;;9.48;2.40;;;;;;;38.01;16.68;100517.56;4453276;32;20096;-66
2022/05/16 12:05:02;;;;;;;5.87;2.30;;;;;;;38.41;17.49;100509.78;4453460;32;20529;-66
2022/05/16 12:07:35;;;;;;;4.40;2.20;;;;;;;39.28;16.39;100511.34;4453588;32;20783;-66
2022/05/16 12:10:24;;;;;;;9.30;2.40;;;;;;;38.34;17.10;100508.78;4453756;32;20081;-67
2022/05/16 12:13:18;;;;;;;17.52;2.75;;;;;;;40.08;16.32;100500.69;4454017;32;20123;-67
2022/05/16 12:15:46;;;;;;;12.93;2.40;;;;;;;39.78;15.56;100492.72;4453147;32;20515;-66
2022/05/16 12:18:48;;;;;;;7.82;2.62;;;;;;;39.42;16.97;100496.56;4452834;32;20108;-66